sensor_id;sensor_type;location;lat;lon;timestamp;P1;durP1;ratioP1;P2;durP2;ratioP2
72053;SDS011;59918;51.280;7.950;2022-08-19T00:00:53;31.58;;;22.20;;
72053;SDS011;59918;51.280;7.950;2022-08-19T00:03:18;35.05;;;22.13;;
72053;SDS011;59918;51.280;7.950;2022-08-19T00:05:43;31.83;;;22.02;;
72053;SDS011;59918;51.280;7.950;2022-08-19T00:08:09;32.40;;;20.63;;
72053;SDS011;59918;51.280;7.950;2022-08-19T00:10:34;33.10;;;22.83;;
72053;SDS011;59918;51.280;7.950;2022-08-19T00:13:02;29.33;;;20.60;;
72053;SDS011;59918;51.280;7.950;2022-08-19T00:15:27;31.27;;;21.05;;
72053;SDS011;59918;51.280;7.950;2022-08-19T00:17:52;28.67;;;20.55;;
72053;SDS011;59918;51.280;7.950;2022-08-19T00:20:19;32.20;;;22.75;;
72053;SDS011;59918;51.280;7.950;2022-08-19T00:22:46;34.30;;;23.35;;
72053;SDS011;59918;51.280;7.950;2022-08-19T00:25:11;33.78;;;22.75;;
72053;SDS011;59918;51.280;7.950;2022-08-19T00:27:37;32.20;;;21.90;;
72053;SDS011;59918;51.280;7.950;2022-08-19T00:30:03;35.33;;;22.60;;
72053;SDS011;59918;51.280;7.950;2022-08-19T00:32:30;28.25;;;20.80;;
72053;SDS011;59918;51.280;7.950;2022-08-19T00:34:55;36.38;;;22.08;;
72053;SDS011;59918;51.280;7.950;2022-08-19T00:37:22;38.28;;;21.67;;
72053;SDS011;59918;51.280;7.950;2022-08-19T00:39:48;33.22;;;23.15;;
72053;SDS011;59918;51.280;7.950;2022-08-19T00:42:14;37.67;;;21.88;;
72053;SDS011;59918;51.280;7.950;2022-08-19T00:44:40;35.05;;;21.30;;
72053;SDS011;59918;51.280;7.950;2022-08-19T00:47:05;40.15;;;23.38;;
72053;SDS011;59918;51.280;7.950;2022-08-19T00:49:31;34.03;;;22.20;;
72053;SDS011;59918;51.280;7.950;2022-08-19T00:54:37;32.33;;;20.13;;
72053;SDS011;59918;51.280;7.950;2022-08-19T00:57:05;30.88;;;19.50;;
72053;SDS011;59918;51.280;7.950;2022-08-19T00:59:34;28.75;;;19.40;;
72053;SDS011;59918;51.280;7.950;2022-08-19T01:02:01;33.40;;;21.30;;
72053;SDS011;59918;51.280;7.950;2022-08-19T01:04:27;30.30;;;22.65;;
72053;SDS011;59918;51.280;7.950;2022-08-19T01:06:52;31.52;;;21.55;;
72053;SDS011;59918;51.280;7.950;2022-08-19T01:09:17;27.80;;;19.98;;
72053;SDS011;59918;51.280;7.950;2022-08-19T01:11:43;28.15;;;19.42;;
72053;SDS011;59918;51.280;7.950;2022-08-19T01:14:10;25.17;;;18.73;;
72053;SDS011;59918;51.280;7.950;2022-08-19T01:16:35;29.80;;;19.92;;
72053;SDS011;59918;51.280;7.950;2022-08-19T01:19:03;29.10;;;20.27;;
72053;SDS011;59918;51.280;7.950;2022-08-19T01:21:42;29.85;;;20.65;;
72053;SDS011;59918;51.280;7.950;2022-08-19T01:24:13;33.45;;;21.15;;
72053;SDS011;59918;51.280;7.950;2022-08-19T01:26:39;36.42;;;21.38;;
72053;SDS011;59918;51.280;7.950;2022-08-19T01:29:10;29.27;;;19.02;;
72053;SDS011;59918;51.280;7.950;2022-08-19T01:31:35;29.50;;;19.30;;
72053;SDS011;59918;51.280;7.950;2022-08-19T01:34:01;28.75;;;19.30;;
72053;SDS011;59918;51.280;7.950;2022-08-19T01:36:29;26.15;;;18.75;;
72053;SDS011;59918;51.280;7.950;2022-08-19T01:38:55;26.58;;;19.00;;
72053;SDS011;59918;51.280;7.950;2022-08-19T01:41:21;26.33;;;18.98;;
72053;SDS011;59918;51.280;7.950;2022-08-19T01:43:47;25.45;;;19.77;;
72053;SDS011;59918;51.280;7.950;2022-08-19T01:46:12;29.05;;;19.92;;
72053;SDS011;59918;51.280;7.950;2022-08-19T01:48:38;29.27;;;19.25;;
72053;SDS011;59918;51.280;7.950;2022-08-19T01:51:06;28.85;;;19.10;;
72053;SDS011;59918;51.280;7.950;2022-08-19T01:53:35;29.77;;;20.38;;
72053;SDS011;59918;51.280;7.950;2022-08-19T01:56:00;31.15;;;19.85;;
72053;SDS011;59918;51.280;7.950;2022-08-19T01:58:27;28.20;;;18.38;;
72053;SDS011;59918;51.280;7.950;2022-08-19T02:00:57;26.52;;;18.60;;
72053;SDS011;59918;51.280;7.950;2022-08-19T02:03:22;26.65;;;19.63;;
72053;SDS011;59918;51.280;7.950;2022-08-19T02:05:48;28.92;;;18.70;;
72053;SDS011;59918;51.280;7.950;2022-08-19T02:08:19;31.25;;;19.15;;
72053;SDS011;59918;51.280;7.950;2022-08-19T02:10:44;27.88;;;18.88;;
72053;SDS011;59918;51.280;7.950;2022-08-19T02:13:10;26.90;;;19.58;;
72053;SDS011;59918;51.280;7.950;2022-08-19T02:15:37;29.30;;;19.02;;
72053;SDS011;59918;51.280;7.950;2022-08-19T02:18:02;30.63;;;20.23;;
72053;SDS011;59918;51.280;7.950;2022-08-19T02:20:28;36.50;;;22.02;;
72053;SDS011;59918;51.280;7.950;2022-08-19T02:22:53;36.40;;;21.60;;
72053;SDS011;59918;51.280;7.950;2022-08-19T02:25:18;29.50;;;20.17;;
72053;SDS011;59918;51.280;7.950;2022-08-19T02:27:44;33.00;;;21.73;;
72053;SDS011;59918;51.280;7.950;2022-08-19T02:30:11;30.25;;;20.92;;
72053;SDS011;59918;51.280;7.950;2022-08-19T02:32:38;34.50;;;21.20;;
72053;SDS011;59918;51.280;7.950;2022-08-19T02:35:04;38.22;;;22.98;;
72053;SDS011;59918;51.280;7.950;2022-08-19T02:37:29;28.70;;;20.65;;
72053;SDS011;59918;51.280;7.950;2022-08-19T02:39:55;30.27;;;19.23;;
72053;SDS011;59918;51.280;7.950;2022-08-19T02:42:20;29.05;;;20.40;;
72053;SDS011;59918;51.280;7.950;2022-08-19T02:44:45;32.00;;;20.23;;
72053;SDS011;59918;51.280;7.950;2022-08-19T02:47:10;28.13;;;18.95;;
72053;SDS011;59918;51.280;7.950;2022-08-19T02:49:36;33.30;;;20.20;;
72053;SDS011;59918;51.280;7.950;2022-08-19T02:52:02;35.25;;;20.30;;
72053;SDS011;59918;51.280;7.950;2022-08-19T02:54:27;32.95;;;20.65;;
72053;SDS011;59918;51.280;7.950;2022-08-19T02:56:53;38.78;;;21.73;;
72053;SDS011;59918;51.280;7.950;2022-08-19T02:59:18;36.35;;;21.63;;
72053;SDS011;59918;51.280;7.950;2022-08-19T03:01:43;37.88;;;21.42;;
72053;SDS011;59918;51.280;7.950;2022-08-19T03:04:12;36.28;;;21.65;;
72053;SDS011;59918;51.280;7.950;2022-08-19T03:06:42;33.92;;;21.17;;
72053;SDS011;59918;51.280;7.950;2022-08-19T03:09:08;35.38;;;21.65;;
72053;SDS011;59918;51.280;7.950;2022-08-19T03:11:35;36.63;;;22.33;;
72053;SDS011;59918;51.280;7.950;2022-08-19T03:14:04;33.20;;;20.42;;
72053;SDS011;59918;51.280;7.950;2022-08-19T03:16:32;28.60;;;19.33;;
72053;SDS011;59918;51.280;7.950;2022-08-19T03:18:59;34.20;;;19.52;;
72053;SDS011;59918;51.280;7.950;2022-08-19T03:21:26;32.45;;;20.50;;
72053;SDS011;59918;51.280;7.950;2022-08-19T03:23:59;34.35;;;21.33;;
72053;SDS011;59918;51.280;7.950;2022-08-19T03:26:31;42.60;;;22.58;;
72053;SDS011;59918;51.280;7.950;2022-08-19T03:28:56;40.25;;;21.33;;
72053;SDS011;59918;51.280;7.950;2022-08-19T03:31:22;37.70;;;22.50;;
72053;SDS011;59918;51.280;7.950;2022-08-19T03:33:48;36.10;;;21.50;;
72053;SDS011;59918;51.280;7.950;2022-08-19T03:36:20;42.88;;;22.92;;
72053;SDS011;59918;51.280;7.950;2022-08-19T03:38:49;33.97;;;20.80;;
72053;SDS011;59918;51.280;7.950;2022-08-19T03:41:18;37.80;;;20.88;;
72053;SDS011;59918;51.280;7.950;2022-08-19T03:43:45;30.77;;;21.00;;
72053;SDS011;59918;51.280;7.950;2022-08-19T03:46:12;35.08;;;20.98;;
72053;SDS011;59918;51.280;7.950;2022-08-19T03:48:39;41.40;;;21.70;;
72053;SDS011;59918;51.280;7.950;2022-08-19T03:51:06;41.85;;;23.10;;
72053;SDS011;59918;51.280;7.950;2022-08-19T03:53:33;46.25;;;23.80;;
72053;SDS011;59918;51.280;7.950;2022-08-19T03:55:59;40.03;;;23.00;;
72053;SDS011;59918;51.280;7.950;2022-08-19T03:58:25;39.80;;;23.52;;
72053;SDS011;59918;51.280;7.950;2022-08-19T04:00:51;39.03;;;21.85;;
72053;SDS011;59918;51.280;7.950;2022-08-19T04:03:16;40.03;;;22.30;;
72053;SDS011;59918;51.280;7.950;2022-08-19T04:05:42;40.20;;;22.02;;
72053;SDS011;59918;51.280;7.950;2022-08-19T04:08:07;39.63;;;21.98;;
72053;SDS011;59918;51.280;7.950;2022-08-19T04:10:36;42.35;;;22.00;;
72053;SDS011;59918;51.280;7.950;2022-08-19T04:13:02;39.38;;;21.40;;
72053;SDS011;59918;51.280;7.950;2022-08-19T04:15:28;34.35;;;20.88;;
72053;SDS011;59918;51.280;7.950;2022-08-19T04:17:53;40.40;;;22.00;;
72053;SDS011;59918;51.280;7.950;2022-08-19T04:20:18;41.17;;;23.00;;
72053;SDS011;59918;51.280;7.950;2022-08-19T04:22:44;42.83;;;23.60;;
72053;SDS011;59918;51.280;7.950;2022-08-19T04:25:09;41.15;;;21.55;;
72053;SDS011;59918;51.280;7.950;2022-08-19T04:27:37;41.97;;;23.10;;
72053;SDS011;59918;51.280;7.950;2022-08-19T04:30:03;38.85;;;21.92;;
72053;SDS011;59918;51.280;7.950;2022-08-19T04:32:28;46.78;;;24.27;;
72053;SDS011;59918;51.280;7.950;2022-08-19T04:34:56;48.92;;;24.30;;
72053;SDS011;59918;51.280;7.950;2022-08-19T04:37:21;45.83;;;24.02;;
72053;SDS011;59918;51.280;7.950;2022-08-19T04:39:46;45.70;;;23.90;;
72053;SDS011;59918;51.280;7.950;2022-08-19T04:42:12;40.75;;;22.90;;
72053;SDS011;59918;51.280;7.950;2022-08-19T04:44:37;40.50;;;22.65;;
72053;SDS011;59918;51.280;7.950;2022-08-19T04:47:03;37.17;;;22.65;;
72053;SDS011;59918;51.280;7.950;2022-08-19T04:49:28;42.88;;;22.23;;
72053;SDS011;59918;51.280;7.950;2022-08-19T04:51:54;47.58;;;23.55;;
72053;SDS011;59918;51.280;7.950;2022-08-19T04:54:21;43.53;;;24.13;;
72053;SDS011;59918;51.280;7.950;2022-08-19T04:56:48;48.30;;;24.15;;
72053;SDS011;59918;51.280;7.950;2022-08-19T04:59:13;45.60;;;23.90;;
72053;SDS011;59918;51.280;7.950;2022-08-19T05:01:39;42.05;;;22.83;;
72053;SDS011;59918;51.280;7.950;2022-08-19T05:04:04;40.05;;;23.15;;
72053;SDS011;59918;51.280;7.950;2022-08-19T05:06:31;39.95;;;22.70;;
72053;SDS011;59918;51.280;7.950;2022-08-19T05:08:57;42.72;;;25.02;;
72053;SDS011;59918;51.280;7.950;2022-08-19T05:11:26;44.15;;;23.92;;
72053;SDS011;59918;51.280;7.950;2022-08-19T05:13:57;43.53;;;23.55;;
72053;SDS011;59918;51.280;7.950;2022-08-19T05:16:23;41.58;;;23.65;;
72053;SDS011;59918;51.280;7.950;2022-08-19T05:18:49;44.97;;;24.58;;
72053;SDS011;59918;51.280;7.950;2022-08-19T05:21:15;45.03;;;24.73;;
72053;SDS011;59918;51.280;7.950;2022-08-19T05:23:43;44.47;;;25.25;;
72053;SDS011;59918;51.280;7.950;2022-08-19T05:26:08;46.42;;;24.83;;
72053;SDS011;59918;51.280;7.950;2022-08-19T05:28:34;37.30;;;23.05;;
72053;SDS011;59918;51.280;7.950;2022-08-19T05:30:59;35.72;;;20.60;;
72053;SDS011;59918;51.280;7.950;2022-08-19T05:33:24;37.80;;;22.67;;
72053;SDS011;59918;51.280;7.950;2022-08-19T05:35:50;34.67;;;21.77;;
72053;SDS011;59918;51.280;7.950;2022-08-19T05:38:35;34.58;;;21.95;;
72053;SDS011;59918;51.280;7.950;2022-08-19T05:41:05;34.13;;;22.23;;
72053;SDS011;59918;51.280;7.950;2022-08-19T05:43:32;31.47;;;21.40;;
72053;SDS011;59918;51.280;7.950;2022-08-19T05:45:57;33.83;;;22.17;;
72053;SDS011;59918;51.280;7.950;2022-08-19T05:48:22;31.30;;;22.08;;
72053;SDS011;59918;51.280;7.950;2022-08-19T05:50:47;34.80;;;20.33;;
72053;SDS011;59918;51.280;7.950;2022-08-19T05:53:13;33.08;;;22.05;;
72053;SDS011;59918;51.280;7.950;2022-08-19T05:55:38;35.67;;;21.85;;
72053;SDS011;59918;51.280;7.950;2022-08-19T05:58:03;35.65;;;22.48;;
72053;SDS011;59918;51.280;7.950;2022-08-19T06:00:29;33.58;;;22.50;;
72053;SDS011;59918;51.280;7.950;2022-08-19T06:02:54;34.00;;;20.92;;
72053;SDS011;59918;51.280;7.950;2022-08-19T06:05:19;31.90;;;20.48;;
72053;SDS011;59918;51.280;7.950;2022-08-19T06:07:45;30.73;;;19.88;;
72053;SDS011;59918;51.280;7.950;2022-08-19T06:10:11;25.98;;;19.17;;
72053;SDS011;59918;51.280;7.950;2022-08-19T06:12:36;31.25;;;21.10;;
72053;SDS011;59918;51.280;7.950;2022-08-19T06:15:07;28.65;;;19.73;;
72053;SDS011;59918;51.280;7.950;2022-08-19T06:17:35;27.27;;;19.60;;
72053;SDS011;59918;51.280;7.950;2022-08-19T06:20:00;29.17;;;18.65;;
72053;SDS011;59918;51.280;7.950;2022-08-19T06:22:27;24.95;;;18.73;;
72053;SDS011;59918;51.280;7.950;2022-08-19T06:24:53;25.23;;;17.80;;
72053;SDS011;59918;51.280;7.950;2022-08-19T06:27:19;25.60;;;17.30;;
72053;SDS011;59918;51.280;7.950;2022-08-19T06:29:45;22.17;;;16.63;;
72053;SDS011;59918;51.280;7.950;2022-08-19T06:32:10;23.27;;;17.60;;
72053;SDS011;59918;51.280;7.950;2022-08-19T06:34:56;23.20;;;17.13;;
72053;SDS011;59918;51.280;7.950;2022-08-19T06:37:21;21.38;;;17.45;;
72053;SDS011;59918;51.280;7.950;2022-08-19T06:39:46;23.05;;;17.80;;
72053;SDS011;59918;51.280;7.950;2022-08-19T06:42:12;22.42;;;17.67;;
72053;SDS011;59918;51.280;7.950;2022-08-19T06:44:58;23.17;;;17.60;;
72053;SDS011;59918;51.280;7.950;2022-08-19T06:47:23;22.35;;;17.42;;
72053;SDS011;59918;51.280;7.950;2022-08-19T06:49:49;23.33;;;18.40;;
72053;SDS011;59918;51.280;7.950;2022-08-19T06:52:14;27.67;;;19.60;;
72053;SDS011;59918;51.280;7.950;2022-08-19T06:54:40;24.88;;;17.35;;
72053;SDS011;59918;51.280;7.950;2022-08-19T06:57:06;22.58;;;18.15;;
72053;SDS011;59918;51.280;7.950;2022-08-19T06:59:32;26.20;;;17.98;;
72053;SDS011;59918;51.280;7.950;2022-08-19T07:01:58;24.35;;;18.58;;
72053;SDS011;59918;51.280;7.950;2022-08-19T07:04:26;20.80;;;16.92;;
72053;SDS011;59918;51.280;7.950;2022-08-19T07:07:00;20.85;;;14.73;;
72053;SDS011;59918;51.280;7.950;2022-08-19T07:09:28;16.40;;;12.35;;
72053;SDS011;59918;51.280;7.950;2022-08-19T07:11:54;11.50;;;10.30;;
72053;SDS011;59918;51.280;7.950;2022-08-19T07:14:21;9.80;;;8.82;;
72053;SDS011;59918;51.280;7.950;2022-08-19T07:16:49;14.55;;;11.68;;
72053;SDS011;59918;51.280;7.950;2022-08-19T07:19:16;12.82;;;11.38;;
72053;SDS011;59918;51.280;7.950;2022-08-19T07:21:42;13.00;;;9.90;;
72053;SDS011;59918;51.280;7.950;2022-08-19T07:24:08;11.73;;;10.52;;
72053;SDS011;59918;51.280;7.950;2022-08-19T07:26:39;10.75;;;9.40;;
72053;SDS011;59918;51.280;7.950;2022-08-19T07:29:07;11.77;;;9.18;;
72053;SDS011;59918;51.280;7.950;2022-08-19T07:31:33;13.63;;;11.38;;
72053;SDS011;59918;51.280;7.950;2022-08-19T07:33:59;18.35;;;12.88;;
72053;SDS011;59918;51.280;7.950;2022-08-19T07:36:25;13.95;;;10.38;;
72053;SDS011;59918;51.280;7.950;2022-08-19T07:38:52;10.88;;;9.88;;
72053;SDS011;59918;51.280;7.950;2022-08-19T07:41:20;13.07;;;10.75;;
72053;SDS011;59918;51.280;7.950;2022-08-19T07:43:47;11.95;;;10.73;;
72053;SDS011;59918;51.280;7.950;2022-08-19T07:46:13;12.13;;;10.93;;
72053;SDS011;59918;51.280;7.950;2022-08-19T07:48:39;13.05;;;11.27;;
72053;SDS011;59918;51.280;7.950;2022-08-19T07:51:06;14.82;;;11.38;;
72053;SDS011;59918;51.280;7.950;2022-08-19T07:53:35;13.13;;;10.80;;
72053;SDS011;59918;51.280;7.950;2022-08-19T07:56:02;11.95;;;10.75;;
72053;SDS011;59918;51.280;7.950;2022-08-19T07:58:28;14.90;;;12.02;;
72053;SDS011;59918;51.280;7.950;2022-08-19T08:00:59;17.33;;;12.57;;
72053;SDS011;59918;51.280;7.950;2022-08-19T08:03:26;14.80;;;13.05;;
72053;SDS011;59918;51.280;7.950;2022-08-19T08:05:52;13.35;;;11.77;;
72053;SDS011;59918;51.280;7.950;2022-08-19T08:08:17;13.02;;;11.73;;
72053;SDS011;59918;51.280;7.950;2022-08-19T08:10:42;12.48;;;11.18;;
72053;SDS011;59918;51.280;7.950;2022-08-19T08:13:08;16.75;;;12.43;;
72053;SDS011;59918;51.280;7.950;2022-08-19T08:15:33;17.08;;;12.10;;
72053;SDS011;59918;51.280;7.950;2022-08-19T08:17:59;15.15;;;11.60;;
72053;SDS011;59918;51.280;7.950;2022-08-19T08:20:24;16.35;;;14.05;;
72053;SDS011;59918;51.280;7.950;2022-08-19T08:22:49;19.30;;;15.25;;
72053;SDS011;59918;51.280;7.950;2022-08-19T08:25:16;24.85;;;16.23;;
72053;SDS011;59918;51.280;7.950;2022-08-19T08:27:44;19.48;;;15.00;;
72053;SDS011;59918;51.280;7.950;2022-08-19T08:30:11;20.88;;;16.83;;
72053;SDS011;59918;51.280;7.950;2022-08-19T08:32:42;16.58;;;13.73;;
72053;SDS011;59918;51.280;7.950;2022-08-19T08:35:09;15.73;;;13.85;;
72053;SDS011;59918;51.280;7.950;2022-08-19T08:37:36;18.10;;;14.77;;
72053;SDS011;59918;51.280;7.950;2022-08-19T08:40:03;16.77;;;14.43;;
72053;SDS011;59918;51.280;7.950;2022-08-19T08:42:34;15.68;;;13.20;;
72053;SDS011;59918;51.280;7.950;2022-08-19T08:45:17;22.95;;;16.60;;
72053;SDS011;59918;51.280;7.950;2022-08-19T08:47:44;17.20;;;14.85;;
72053;SDS011;59918;51.280;7.950;2022-08-19T08:50:17;20.52;;;16.45;;
72053;SDS011;59918;51.280;7.950;2022-08-19T08:52:47;20.20;;;17.33;;
72053;SDS011;59918;51.280;7.950;2022-08-19T08:55:21;24.15;;;20.35;;
72053;SDS011;59918;51.280;7.950;2022-08-19T09:00:19;21.27;;;18.33;;
72053;SDS011;59918;51.280;7.950;2022-08-19T09:02:49;15.45;;;13.95;;
72053;SDS011;59918;51.280;7.950;2022-08-19T09:05:17;17.88;;;16.08;;
72053;SDS011;59918;51.280;7.950;2022-08-19T09:10:36;16.10;;;14.35;;
72053;SDS011;59918;51.280;7.950;2022-08-19T09:13:07;15.85;;;14.30;;
72053;SDS011;59918;51.280;7.950;2022-08-19T09:16:06;17.10;;;15.45;;
72053;SDS011;59918;51.280;7.950;2022-08-19T09:18:44;14.10;;;12.90;;
72053;SDS011;59918;51.280;7.950;2022-08-19T09:21:11;13.93;;;12.57;;
72053;SDS011;59918;51.280;7.950;2022-08-19T09:23:36;14.98;;;13.50;;
72053;SDS011;59918;51.280;7.950;2022-08-19T09:26:06;16.95;;;14.20;;
72053;SDS011;59918;51.280;7.950;2022-08-19T09:28:33;15.15;;;13.88;;
72053;SDS011;59918;51.280;7.950;2022-08-19T09:30:58;15.23;;;13.70;;
72053;SDS011;59918;51.280;7.950;2022-08-19T09:33:23;12.63;;;11.52;;
72053;SDS011;59918;51.280;7.950;2022-08-19T09:36:01;12.65;;;11.65;;
72053;SDS011;59918;51.280;7.950;2022-08-19T09:38:35;13.43;;;12.38;;
72053;SDS011;59918;51.280;7.950;2022-08-19T09:41:03;10.13;;;9.40;;
72053;SDS011;59918;51.280;7.950;2022-08-19T09:43:29;10.20;;;9.25;;
72053;SDS011;59918;51.280;7.950;2022-08-19T09:45:54;9.05;;;8.18;;
72053;SDS011;59918;51.280;7.950;2022-08-19T09:48:19;9.63;;;8.80;;
72053;SDS011;59918;51.280;7.950;2022-08-19T09:51:06;8.18;;;7.47;;
72053;SDS011;59918;51.280;7.950;2022-08-19T09:53:36;9.90;;;9.10;;
72053;SDS011;59918;51.280;7.950;2022-08-19T09:56:02;10.32;;;9.43;;
72053;SDS011;59918;51.280;7.950;2022-08-19T09:58:29;11.45;;;10.45;;
72053;SDS011;59918;51.280;7.950;2022-08-19T10:00:54;11.30;;;10.27;;
72053;SDS011;59918;51.280;7.950;2022-08-19T10:03:22;12.35;;;11.00;;
72053;SDS011;59918;51.280;7.950;2022-08-19T10:05:48;11.20;;;10.15;;
72053;SDS011;59918;51.280;7.950;2022-08-19T10:08:14;11.65;;;10.45;;
72053;SDS011;59918;51.280;7.950;2022-08-19T10:10:47;10.48;;;9.40;;
72053;SDS011;59918;51.280;7.950;2022-08-19T10:13:15;6.13;;;5.65;;
72053;SDS011;59918;51.280;7.950;2022-08-19T10:15:42;6.78;;;6.10;;
72053;SDS011;59918;51.280;7.950;2022-08-19T10:18:07;7.03;;;6.30;;
72053;SDS011;59918;51.280;7.950;2022-08-19T10:20:33;6.63;;;5.93;;
72053;SDS011;59918;51.280;7.950;2022-08-19T10:22:58;6.82;;;6.18;;
72053;SDS011;59918;51.280;7.950;2022-08-19T10:25:23;6.47;;;5.87;;
72053;SDS011;59918;51.280;7.950;2022-08-19T10:27:49;8.65;;;6.75;;
72053;SDS011;59918;51.280;7.950;2022-08-19T10:30:14;6.93;;;6.40;;
72053;SDS011;59918;51.280;7.950;2022-08-19T10:32:42;8.52;;;6.82;;
72053;SDS011;59918;51.280;7.950;2022-08-19T10:35:07;7.13;;;5.95;;
72053;SDS011;59918;51.280;7.950;2022-08-19T10:37:32;6.57;;;6.18;;
72053;SDS011;59918;51.280;7.950;2022-08-19T10:39:58;6.30;;;5.80;;
72053;SDS011;59918;51.280;7.950;2022-08-19T10:42:23;6.45;;;5.85;;
72053;SDS011;59918;51.280;7.950;2022-08-19T10:44:49;15.13;;;6.70;;
72053;SDS011;59918;51.280;7.950;2022-08-19T10:47:14;6.43;;;5.95;;
72053;SDS011;59918;51.280;7.950;2022-08-19T10:49:39;6.47;;;5.88;;
72053;SDS011;59918;51.280;7.950;2022-08-19T10:52:05;6.40;;;5.90;;
72053;SDS011;59918;51.280;7.950;2022-08-19T10:54:33;5.57;;;5.03;;
72053;SDS011;59918;51.280;7.950;2022-08-19T10:56:58;6.07;;;5.57;;
72053;SDS011;59918;51.280;7.950;2022-08-19T10:59:25;6.97;;;6.35;;
72053;SDS011;59918;51.280;7.950;2022-08-19T11:01:53;10.40;;;7.72;;
72053;SDS011;59918;51.280;7.950;2022-08-19T11:04:20;8.70;;;7.80;;
72053;SDS011;59918;51.280;7.950;2022-08-19T11:06:45;8.27;;;7.47;;
72053;SDS011;59918;51.280;7.950;2022-08-19T11:09:12;6.53;;;5.97;;
72053;SDS011;59918;51.280;7.950;2022-08-19T11:11:37;6.00;;;5.50;;
72053;SDS011;59918;51.280;7.950;2022-08-19T11:14:03;5.53;;;5.13;;
72053;SDS011;59918;51.280;7.950;2022-08-19T11:16:28;5.43;;;4.93;;
72053;SDS011;59918;51.280;7.950;2022-08-19T11:18:54;5.80;;;5.30;;
72053;SDS011;59918;51.280;7.950;2022-08-19T11:21:30;5.32;;;4.93;;
72053;SDS011;59918;51.280;7.950;2022-08-19T11:24:01;5.40;;;4.97;;
72053;SDS011;59918;51.280;7.950;2022-08-19T11:26:29;8.50;;;5.63;;
72053;SDS011;59918;51.280;7.950;2022-08-19T11:28:56;4.65;;;4.18;;
72053;SDS011;59918;51.280;7.950;2022-08-19T11:31:23;4.40;;;4.00;;
72053;SDS011;59918;51.280;7.950;2022-08-19T11:33:50;4.97;;;4.45;;
72053;SDS011;59918;51.280;7.950;2022-08-19T11:36:16;5.85;;;5.55;;
72053;SDS011;59918;51.280;7.950;2022-08-19T11:38:43;7.38;;;5.85;;
72053;SDS011;59918;51.280;7.950;2022-08-19T11:41:09;5.82;;;5.43;;
72053;SDS011;59918;51.280;7.950;2022-08-19T11:43:35;5.78;;;5.15;;
72053;SDS011;59918;51.280;7.950;2022-08-19T11:46:04;5.18;;;4.25;;
72053;SDS011;59918;51.280;7.950;2022-08-19T11:48:30;5.78;;;5.43;;
72053;SDS011;59918;51.280;7.950;2022-08-19T11:50:56;6.10;;;5.60;;
72053;SDS011;59918;51.280;7.950;2022-08-19T11:53:21;5.17;;;4.87;;
72053;SDS011;59918;51.280;7.950;2022-08-19T11:55:47;6.07;;;5.68;;
72053;SDS011;59918;51.280;7.950;2022-08-19T11:58:13;5.20;;;4.80;;
72053;SDS011;59918;51.280;7.950;2022-08-19T12:00:39;4.40;;;4.03;;
72053;SDS011;59918;51.280;7.950;2022-08-19T12:03:05;4.18;;;3.88;;
72053;SDS011;59918;51.280;7.950;2022-08-19T12:05:31;6.22;;;4.20;;
72053;SDS011;59918;51.280;7.950;2022-08-19T12:07:58;4.85;;;4.45;;
72053;SDS011;59918;51.280;7.950;2022-08-19T12:10:24;4.72;;;4.30;;
72053;SDS011;59918;51.280;7.950;2022-08-19T12:12:49;4.70;;;4.35;;
72053;SDS011;59918;51.280;7.950;2022-08-19T12:15:15;5.13;;;4.40;;
72053;SDS011;59918;51.280;7.950;2022-08-19T12:17:40;4.85;;;4.43;;
72053;SDS011;59918;51.280;7.950;2022-08-19T12:20:07;6.78;;;6.07;;
72053;SDS011;59918;51.280;7.950;2022-08-19T12:22:37;10.90;;;9.50;;
72053;SDS011;59918;51.280;7.950;2022-08-19T12:25:03;10.95;;;9.90;;
72053;SDS011;59918;51.280;7.950;2022-08-19T12:27:30;12.18;;;10.98;;
72053;SDS011;59918;51.280;7.950;2022-08-19T12:29:55;10.70;;;9.73;;
72053;SDS011;59918;51.280;7.950;2022-08-19T12:32:21;9.73;;;9.02;;
72053;SDS011;59918;51.280;7.950;2022-08-19T12:34:46;11.05;;;10.07;;
72053;SDS011;59918;51.280;7.950;2022-08-19T12:37:11;11.93;;;10.93;;
72053;SDS011;59918;51.280;7.950;2022-08-19T12:39:40;11.03;;;10.13;;
72053;SDS011;59918;51.280;7.950;2022-08-19T12:42:07;11.52;;;10.45;;
72053;SDS011;59918;51.280;7.950;2022-08-19T12:44:34;10.43;;;9.65;;
72053;SDS011;59918;51.280;7.950;2022-08-19T12:47:00;11.18;;;10.27;;
72053;SDS011;59918;51.280;7.950;2022-08-19T12:49:27;11.83;;;10.73;;
72053;SDS011;59918;51.280;7.950;2022-08-19T12:51:53;11.52;;;10.40;;
72053;SDS011;59918;51.280;7.950;2022-08-19T12:54:18;12.43;;;11.53;;
72053;SDS011;59918;51.280;7.950;2022-08-19T12:56:43;12.20;;;11.10;;
72053;SDS011;59918;51.280;7.950;2022-08-19T12:59:09;12.10;;;10.90;;
72053;SDS011;59918;51.280;7.950;2022-08-19T13:01:34;13.23;;;12.03;;
72053;SDS011;59918;51.280;7.950;2022-08-19T13:03:59;12.80;;;11.33;;
72053;SDS011;59918;51.280;7.950;2022-08-19T13:06:25;14.85;;;13.38;;
72053;SDS011;59918;51.280;7.950;2022-08-19T13:08:50;12.60;;;11.43;;
72053;SDS011;59918;51.280;7.950;2022-08-19T13:11:17;11.40;;;10.40;;
72053;SDS011;59918;51.280;7.950;2022-08-19T13:13:45;11.00;;;10.10;;
72053;SDS011;59918;51.280;7.950;2022-08-19T13:16:12;11.70;;;10.60;;
72053;SDS011;59918;51.280;7.950;2022-08-19T13:18:38;11.02;;;9.85;;
72053;SDS011;59918;51.280;7.950;2022-08-19T13:21:26;10.40;;;9.40;;
72053;SDS011;59918;51.280;7.950;2022-08-19T13:23:52;8.55;;;7.90;;
72053;SDS011;59918;51.280;7.950;2022-08-19T13:26:18;8.13;;;7.45;;
72053;SDS011;59918;51.280;7.950;2022-08-19T13:28:44;8.10;;;7.40;;
72053;SDS011;59918;51.280;7.950;2022-08-19T13:31:09;7.45;;;6.80;;
72053;SDS011;59918;51.280;7.950;2022-08-19T13:33:34;6.77;;;6.20;;
72053;SDS011;59918;51.280;7.950;2022-08-19T13:36:00;7.60;;;7.00;;
72053;SDS011;59918;51.280;7.950;2022-08-19T13:38:45;7.90;;;7.20;;
72053;SDS011;59918;51.280;7.950;2022-08-19T13:41:13;7.35;;;6.70;;
72053;SDS011;59918;51.280;7.950;2022-08-19T13:43:38;7.03;;;6.53;;
72053;SDS011;59918;51.280;7.950;2022-08-19T13:46:07;7.40;;;6.80;;
72053;SDS011;59918;51.280;7.950;2022-08-19T13:48:35;6.53;;;6.03;;
72053;SDS011;59918;51.280;7.950;2022-08-19T13:51:00;6.70;;;6.10;;
72053;SDS011;59918;51.280;7.950;2022-08-19T13:53:25;6.97;;;5.83;;
72053;SDS011;59918;51.280;7.950;2022-08-19T13:55:51;5.97;;;5.57;;
72053;SDS011;59918;51.280;7.950;2022-08-19T13:58:16;5.30;;;4.90;;
72053;SDS011;59918;51.280;7.950;2022-08-19T14:00:43;5.43;;;5.13;;
72053;SDS011;59918;51.280;7.950;2022-08-19T14:03:12;5.60;;;5.10;;
72053;SDS011;59918;51.280;7.950;2022-08-19T14:05:38;5.82;;;4.53;;
72053;SDS011;59918;51.280;7.950;2022-08-19T14:08:03;7.28;;;4.80;;
72053;SDS011;59918;51.280;7.950;2022-08-19T14:10:29;4.68;;;4.13;;
72053;SDS011;59918;51.280;7.950;2022-08-19T14:12:55;6.50;;;4.18;;
72053;SDS011;59918;51.280;7.950;2022-08-19T14:15:21;5.60;;;5.18;;
72053;SDS011;59918;51.280;7.950;2022-08-19T14:17:47;5.60;;;5.20;;
72053;SDS011;59918;51.280;7.950;2022-08-19T14:20:12;6.77;;;4.70;;
72053;SDS011;59918;51.280;7.950;2022-08-19T14:22:39;6.05;;;5.55;;
72053;SDS011;59918;51.280;7.950;2022-08-19T14:25:06;5.60;;;5.10;;
72053;SDS011;59918;51.280;7.950;2022-08-19T14:27:34;6.82;;;6.15;;
72053;SDS011;59918;51.280;7.950;2022-08-19T14:30:01;6.13;;;5.63;;
72053;SDS011;59918;51.280;7.950;2022-08-19T14:32:28;6.32;;;5.82;;
72053;SDS011;59918;51.280;7.950;2022-08-19T14:34:53;6.68;;;5.95;;